KWLD/WLD METAR and TAF weather

Enter ICAO airport designator
Station Type Date Time Source
KWLD METAR 2022/01/26 20:54 UTC NOAA

KWLD 262054Z AUTO 18009KT 10SM OVC055 00/M19 A3031 RMK AO2 SLP278 T00001189 56039


Station Type Date Time Source
KWLD Decoded METAR 2022/01/26 20:54 UTC NOAA

STROTHER FIELD, KS, United States (KWLD) 37-10N 97-02W 350M
Jan 26, 2022 - 03:54 PM EST / 2022.01.26 2054 UTC
Wind: from the S (180 degrees) at 10 MPH (9 KT):0
Visibility: 10 mile(s):0
Sky conditions: overcast
Temperature: 32.0 F (0.0 C)
Windchill: 23 F (-5 C):1
Dew Point: -2.0 F (-18.9 C)
Relative Humidity: 22%
Pressure (altimeter): 30.31 in. Hg (1026 hPa)
Pressure tendency: 0.12 inches (3.9 hPa) lower than three hours ago
ob: KWLD 262054Z AUTO 18009KT 10SM OVC055 00/M19 A3031 RMK AO2 SLP278 T00001189 56039
cycle: 21

Station Type Date Time Source
KWLD TAF UTC NOAA

Error!

Example: see airport list